sensor_id;sensor_type;location;lat;lon;timestamp;P1;durP1;ratioP1;P2;durP2;ratioP2
72951;SDS011;61102;51.956;5.878;2023-06-19T00:01:14;6.30;;;2.20;;
72951;SDS011;61102;51.956;5.878;2023-06-19T00:03:40;6.10;;;2.50;;
72951;SDS011;61102;51.956;5.878;2023-06-19T00:06:06;5.47;;;2.15;;
72951;SDS011;61102;51.956;5.878;2023-06-19T00:08:34;4.88;;;2.00;;
72951;SDS011;61102;51.956;5.878;2023-06-19T00:11:02;5.07;;;2.20;;
72951;SDS011;61102;51.956;5.878;2023-06-19T00:13:28;5.90;;;1.85;;
72951;SDS011;61102;51.956;5.878;2023-06-19T00:15:54;6.80;;;2.50;;
72951;SDS011;61102;51.956;5.878;2023-06-19T00:18:20;5.20;;;2.25;;
72951;SDS011;61102;51.956;5.878;2023-06-19T00:20:47;4.53;;;1.98;;
72951;SDS011;61102;51.956;5.878;2023-06-19T00:23:13;5.70;;;2.38;;
72951;SDS011;61102;51.956;5.878;2023-06-19T00:25:42;4.90;;;1.67;;
72951;SDS011;61102;51.956;5.878;2023-06-19T00:28:10;4.32;;;1.75;;
72951;SDS011;61102;51.956;5.878;2023-06-19T00:30:40;6.43;;;2.15;;
72951;SDS011;61102;51.956;5.878;2023-06-19T00:33:07;4.68;;;1.73;;
72951;SDS011;61102;51.956;5.878;2023-06-19T00:35:34;6.10;;;2.28;;
72951;SDS011;61102;51.956;5.878;2023-06-19T00:38:00;5.55;;;2.03;;
72951;SDS011;61102;51.956;5.878;2023-06-19T00:40:27;4.95;;;1.90;;
72951;SDS011;61102;51.956;5.878;2023-06-19T00:42:55;5.00;;;2.00;;
72951;SDS011;61102;51.956;5.878;2023-06-19T00:45:22;5.75;;;2.13;;
72951;SDS011;61102;51.956;5.878;2023-06-19T00:47:50;6.57;;;2.28;;
72951;SDS011;61102;51.956;5.878;2023-06-19T00:50:18;6.32;;;1.65;;
72951;SDS011;61102;51.956;5.878;2023-06-19T00:52:44;6.32;;;2.55;;
72951;SDS011;61102;51.956;5.878;2023-06-19T00:55:10;6.40;;;2.17;;
72951;SDS011;61102;51.956;5.878;2023-06-19T00:57:37;5.78;;;2.15;;
72951;SDS011;61102;51.956;5.878;2023-06-19T01:00:05;6.47;;;2.63;;
72951;SDS011;61102;51.956;5.878;2023-06-19T01:02:34;5.28;;;2.00;;
72951;SDS011;61102;51.956;5.878;2023-06-19T01:05:00;4.97;;;2.05;;
72951;SDS011;61102;51.956;5.878;2023-06-19T01:08:13;4.60;;;1.60;;
72951;SDS011;61102;51.956;5.878;2023-06-19T01:10:20;5.47;;;1.92;;
72951;SDS011;61102;51.956;5.878;2023-06-19T01:13:00;5.85;;;2.00;;
72951;SDS011;61102;51.956;5.878;2023-06-19T01:15:32;4.85;;;1.90;;
72951;SDS011;61102;51.956;5.878;2023-06-19T01:17:58;6.00;;;2.10;;
72951;SDS011;61102;51.956;5.878;2023-06-19T01:20:26;5.18;;;2.00;;
72951;SDS011;61102;51.956;5.878;2023-06-19T01:22:52;5.80;;;2.33;;
72951;SDS011;61102;51.956;5.878;2023-06-19T01:25:25;6.75;;;1.95;;
72951;SDS011;61102;51.956;5.878;2023-06-19T01:27:51;6.00;;;2.00;;
72951;SDS011;61102;51.956;5.878;2023-06-19T01:30:17;4.30;;;1.80;;
72951;SDS011;61102;51.956;5.878;2023-06-19T01:35:43;4.95;;;1.83;;
72951;SDS011;61102;51.956;5.878;2023-06-19T01:38:12;5.25;;;1.77;;
72951;SDS011;61102;51.956;5.878;2023-06-19T01:40:39;4.47;;;1.52;;
72951;SDS011;61102;51.956;5.878;2023-06-19T01:43:08;5.28;;;2.00;;
72951;SDS011;61102;51.956;5.878;2023-06-19T01:45:35;6.43;;;2.25;;
72951;SDS011;61102;51.956;5.878;2023-06-19T01:48:02;4.95;;;1.75;;
72951;SDS011;61102;51.956;5.878;2023-06-19T01:53:18;4.85;;;1.67;;
72951;SDS011;61102;51.956;5.878;2023-06-19T01:55:46;4.78;;;1.75;;
72951;SDS011;61102;51.956;5.878;2023-06-19T01:58:12;5.47;;;2.10;;
72951;SDS011;61102;51.956;5.878;2023-06-19T02:00:38;4.45;;;1.70;;
72951;SDS011;61102;51.956;5.878;2023-06-19T02:03:04;4.90;;;1.85;;
72951;SDS011;61102;51.956;5.878;2023-06-19T02:05:30;5.07;;;1.88;;
72951;SDS011;61102;51.956;5.878;2023-06-19T02:07:57;5.38;;;1.75;;
72951;SDS011;61102;51.956;5.878;2023-06-19T02:10:23;3.97;;;1.35;;
72951;SDS011;61102;51.956;5.878;2023-06-19T02:12:49;4.97;;;1.70;;
72951;SDS011;61102;51.956;5.878;2023-06-19T02:15:15;4.60;;;1.50;;
72951;SDS011;61102;51.956;5.878;2023-06-19T02:17:42;4.88;;;1.75;;
72951;SDS011;61102;51.956;5.878;2023-06-19T02:20:10;4.63;;;1.77;;
72951;SDS011;61102;51.956;5.878;2023-06-19T02:22:37;4.68;;;1.50;;
72951;SDS011;61102;51.956;5.878;2023-06-19T02:25:04;4.72;;;1.70;;
72951;SDS011;61102;51.956;5.878;2023-06-19T02:27:31;7.65;;;1.92;;
72951;SDS011;61102;51.956;5.878;2023-06-19T02:29:58;5.15;;;1.70;;
72951;SDS011;61102;51.956;5.878;2023-06-19T02:32:25;5.10;;;1.75;;
72951;SDS011;61102;51.956;5.878;2023-06-19T02:34:51;4.35;;;1.63;;
72951;SDS011;61102;51.956;5.878;2023-06-19T02:37:17;5.50;;;1.80;;
72951;SDS011;61102;51.956;5.878;2023-06-19T02:39:49;4.65;;;1.58;;
72951;SDS011;61102;51.956;5.878;2023-06-19T02:42:18;4.57;;;1.50;;
72951;SDS011;61102;51.956;5.878;2023-06-19T02:44:44;5.55;;;1.70;;
72951;SDS011;61102;51.956;5.878;2023-06-19T02:47:11;4.18;;;1.50;;
72951;SDS011;61102;51.956;5.878;2023-06-19T02:49:38;5.82;;;1.45;;
72951;SDS011;61102;51.956;5.878;2023-06-19T02:52:04;4.15;;;1.35;;
72951;SDS011;61102;51.956;5.878;2023-06-19T02:54:30;3.58;;;1.23;;
72951;SDS011;61102;51.956;5.878;2023-06-19T02:56:56;3.75;;;1.30;;
72951;SDS011;61102;51.956;5.878;2023-06-19T02:59:22;3.17;;;1.15;;
72951;SDS011;61102;51.956;5.878;2023-06-19T03:01:50;3.70;;;1.17;;
72951;SDS011;61102;51.956;5.878;2023-06-19T03:04:17;3.13;;;1.00;;
72951;SDS011;61102;51.956;5.878;2023-06-19T03:06:44;3.25;;;1.00;;
72951;SDS011;61102;51.956;5.878;2023-06-19T03:09:11;3.40;;;1.15;;
72951;SDS011;61102;51.956;5.878;2023-06-19T03:11:42;2.25;;;0.88;;
72951;SDS011;61102;51.956;5.878;2023-06-19T03:14:08;3.30;;;1.17;;
72951;SDS011;61102;51.956;5.878;2023-06-19T03:16:35;3.33;;;1.00;;
72951;SDS011;61102;51.956;5.878;2023-06-19T03:19:02;3.70;;;1.08;;
72951;SDS011;61102;51.956;5.878;2023-06-19T03:21:28;3.88;;;1.17;;
72951;SDS011;61102;51.956;5.878;2023-06-19T03:23:56;4.82;;;1.10;;
72951;SDS011;61102;51.956;5.878;2023-06-19T03:28:50;2.83;;;1.10;;
72951;SDS011;61102;51.956;5.878;2023-06-19T03:31:16;3.17;;;0.93;;
72951;SDS011;61102;51.956;5.878;2023-06-19T03:33:42;4.07;;;1.10;;
72951;SDS011;61102;51.956;5.878;2023-06-19T03:36:09;2.97;;;1.08;;
72951;SDS011;61102;51.956;5.878;2023-06-19T03:38:47;3.72;;;0.90;;
72951;SDS011;61102;51.956;5.878;2023-06-19T03:41:16;3.22;;;0.80;;
72951;SDS011;61102;51.956;5.878;2023-06-19T03:43:44;3.30;;;1.08;;
72951;SDS011;61102;51.956;5.878;2023-06-19T03:46:11;3.47;;;1.00;;
72951;SDS011;61102;51.956;5.878;2023-06-19T03:48:37;3.03;;;1.00;;
72951;SDS011;61102;51.956;5.878;2023-06-19T03:51:03;3.85;;;1.00;;
72951;SDS011;61102;51.956;5.878;2023-06-19T03:53:31;3.47;;;1.02;;
72951;SDS011;61102;51.956;5.878;2023-06-19T03:55:57;3.25;;;1.10;;
72951;SDS011;61102;51.956;5.878;2023-06-19T03:58:23;3.13;;;1.00;;
72951;SDS011;61102;51.956;5.878;2023-06-19T04:00:51;1.88;;;0.80;;
72951;SDS011;61102;51.956;5.878;2023-06-19T04:03:21;4.22;;;1.17;;
72951;SDS011;61102;51.956;5.878;2023-06-19T04:05:47;2.55;;;0.90;;
72951;SDS011;61102;51.956;5.878;2023-06-19T04:08:13;2.40;;;0.80;;
72951;SDS011;61102;51.956;5.878;2023-06-19T04:10:43;3.88;;;1.20;;
72951;SDS011;61102;51.956;5.878;2023-06-19T04:13:09;2.67;;;0.98;;
72951;SDS011;61102;51.956;5.878;2023-06-19T04:15:35;2.72;;;0.75;;
72951;SDS011;61102;51.956;5.878;2023-06-19T04:18:02;2.78;;;0.88;;
72951;SDS011;61102;51.956;5.878;2023-06-19T04:22:55;3.58;;;0.90;;
72951;SDS011;61102;51.956;5.878;2023-06-19T04:25:21;3.30;;;1.10;;
72951;SDS011;61102;51.956;5.878;2023-06-19T04:27:49;4.18;;;1.20;;
72951;SDS011;61102;51.956;5.878;2023-06-19T04:30:15;2.75;;;1.00;;
72951;SDS011;61102;51.956;5.878;2023-06-19T04:32:41;3.53;;;1.13;;
72951;SDS011;61102;51.956;5.878;2023-06-19T04:35:08;3.95;;;1.08;;
72951;SDS011;61102;51.956;5.878;2023-06-19T04:37:35;4.30;;;1.52;;
72951;SDS011;61102;51.956;5.878;2023-06-19T04:40:01;4.75;;;1.40;;
72951;SDS011;61102;51.956;5.878;2023-06-19T04:42:29;2.28;;;0.98;;
72951;SDS011;61102;51.956;5.878;2023-06-19T04:48:07;3.22;;;1.00;;
72951;SDS011;61102;51.956;5.878;2023-06-19T04:50:33;2.75;;;0.90;;
72951;SDS011;61102;51.956;5.878;2023-06-19T04:52:59;3.45;;;1.02;;
72951;SDS011;61102;51.956;5.878;2023-06-19T04:55:25;3.03;;;1.00;;
72951;SDS011;61102;51.956;5.878;2023-06-19T04:57:51;2.38;;;0.90;;
72951;SDS011;61102;51.956;5.878;2023-06-19T05:00:17;2.85;;;1.00;;
72951;SDS011;61102;51.956;5.878;2023-06-19T05:02:49;3.50;;;1.15;;
72951;SDS011;61102;51.956;5.878;2023-06-19T05:05:16;3.55;;;1.30;;
72951;SDS011;61102;51.956;5.878;2023-06-19T05:07:43;4.25;;;1.20;;
72951;SDS011;61102;51.956;5.878;2023-06-19T05:10:10;4.05;;;1.20;;
72951;SDS011;61102;51.956;5.878;2023-06-19T05:12:37;4.15;;;1.40;;
72951;SDS011;61102;51.956;5.878;2023-06-19T05:15:03;5.57;;;1.40;;
72951;SDS011;61102;51.956;5.878;2023-06-19T05:17:32;3.83;;;1.52;;
72951;SDS011;61102;51.956;5.878;2023-06-19T05:19:58;4.53;;;1.33;;
72951;SDS011;61102;51.956;5.878;2023-06-19T05:22:24;3.40;;;1.25;;
72951;SDS011;61102;51.956;5.878;2023-06-19T05:24:52;1.92;;;0.90;;
72951;SDS011;61102;51.956;5.878;2023-06-19T05:27:18;3.22;;;1.10;;
72951;SDS011;61102;51.956;5.878;2023-06-19T05:29:44;2.97;;;1.05;;
72951;SDS011;61102;51.956;5.878;2023-06-19T05:32:10;3.22;;;1.10;;
72951;SDS011;61102;51.956;5.878;2023-06-19T05:34:36;3.63;;;1.40;;
72951;SDS011;61102;51.956;5.878;2023-06-19T05:37:02;5.43;;;1.20;;
72951;SDS011;61102;51.956;5.878;2023-06-19T05:39:29;3.13;;;1.10;;
72951;SDS011;61102;51.956;5.878;2023-06-19T05:41:55;3.85;;;1.17;;
72951;SDS011;61102;51.956;5.878;2023-06-19T05:44:21;3.97;;;1.50;;
72951;SDS011;61102;51.956;5.878;2023-06-19T05:46:47;5.47;;;1.90;;
72951;SDS011;61102;51.956;5.878;2023-06-19T05:49:13;3.15;;;1.10;;
72951;SDS011;61102;51.956;5.878;2023-06-19T05:51:39;3.28;;;1.17;;
72951;SDS011;61102;51.956;5.878;2023-06-19T05:54:06;4.78;;;1.65;;
72951;SDS011;61102;51.956;5.878;2023-06-19T05:56:32;2.88;;;1.20;;
72951;SDS011;61102;51.956;5.878;2023-06-19T05:58:59;5.15;;;1.58;;
72951;SDS011;61102;51.956;5.878;2023-06-19T06:01:25;4.38;;;1.20;;
72951;SDS011;61102;51.956;5.878;2023-06-19T06:03:53;4.10;;;1.30;;
72951;SDS011;61102;51.956;5.878;2023-06-19T06:06:20;3.83;;;1.48;;
72951;SDS011;61102;51.956;5.878;2023-06-19T06:08:46;2.95;;;1.25;;
72951;SDS011;61102;51.956;5.878;2023-06-19T06:11:12;5.80;;;2.03;;
72951;SDS011;61102;51.956;5.878;2023-06-19T06:13:38;5.38;;;2.22;;
72951;SDS011;61102;51.956;5.878;2023-06-19T06:16:04;6.97;;;2.47;;
72951;SDS011;61102;51.956;5.878;2023-06-19T06:18:30;4.88;;;1.95;;
72951;SDS011;61102;51.956;5.878;2023-06-19T06:20:56;5.05;;;1.90;;
72951;SDS011;61102;51.956;5.878;2023-06-19T06:23:24;5.70;;;2.03;;
72951;SDS011;61102;51.956;5.878;2023-06-19T06:25:51;7.43;;;2.05;;
72951;SDS011;61102;51.956;5.878;2023-06-19T06:28:17;6.75;;;2.40;;
72951;SDS011;61102;51.956;5.878;2023-06-19T06:30:43;6.88;;;2.13;;
72951;SDS011;61102;51.956;5.878;2023-06-19T06:33:09;5.85;;;2.13;;
72951;SDS011;61102;51.956;5.878;2023-06-19T06:35:35;4.50;;;1.80;;
72951;SDS011;61102;51.956;5.878;2023-06-19T06:38:02;5.05;;;1.73;;
72951;SDS011;61102;51.956;5.878;2023-06-19T06:40:28;3.65;;;1.30;;
72951;SDS011;61102;51.956;5.878;2023-06-19T06:42:54;8.77;;;2.80;;
72951;SDS011;61102;51.956;5.878;2023-06-19T06:45:20;5.70;;;2.35;;
72951;SDS011;61102;51.956;5.878;2023-06-19T06:47:52;5.82;;;2.10;;
72951;SDS011;61102;51.956;5.878;2023-06-19T06:50:19;4.85;;;1.98;;
72951;SDS011;61102;51.956;5.878;2023-06-19T06:52:45;5.60;;;2.13;;
72951;SDS011;61102;51.956;5.878;2023-06-19T06:55:14;5.18;;;2.10;;
72951;SDS011;61102;51.956;5.878;2023-06-19T06:57:43;5.32;;;2.10;;
72951;SDS011;61102;51.956;5.878;2023-06-19T07:00:09;4.85;;;1.60;;
72951;SDS011;61102;51.956;5.878;2023-06-19T07:02:37;3.15;;;1.40;;
72951;SDS011;61102;51.956;5.878;2023-06-19T07:05:08;5.05;;;1.80;;
72951;SDS011;61102;51.956;5.878;2023-06-19T07:08:02;5.07;;;1.77;;
72951;SDS011;61102;51.956;5.878;2023-06-19T07:10:29;6.03;;;2.20;;
72951;SDS011;61102;51.956;5.878;2023-06-19T07:12:56;5.90;;;2.05;;
72951;SDS011;61102;51.956;5.878;2023-06-19T07:15:22;5.45;;;2.15;;
72951;SDS011;61102;51.956;5.878;2023-06-19T07:17:48;3.90;;;1.52;;
72951;SDS011;61102;51.956;5.878;2023-06-19T07:20:14;4.82;;;2.10;;
72951;SDS011;61102;51.956;5.878;2023-06-19T07:22:41;5.18;;;1.92;;
72951;SDS011;61102;51.956;5.878;2023-06-19T07:25:09;4.60;;;2.05;;
72951;SDS011;61102;51.956;5.878;2023-06-19T07:27:36;5.13;;;1.95;;
72951;SDS011;61102;51.956;5.878;2023-06-19T07:30:04;4.00;;;1.65;;
72951;SDS011;61102;51.956;5.878;2023-06-19T07:32:31;5.57;;;1.63;;
72951;SDS011;61102;51.956;5.878;2023-06-19T07:34:57;7.60;;;2.33;;
72951;SDS011;61102;51.956;5.878;2023-06-19T07:37:23;6.30;;;2.50;;
72951;SDS011;61102;51.956;5.878;2023-06-19T07:39:49;5.65;;;2.38;;
72951;SDS011;61102;51.956;5.878;2023-06-19T07:42:18;6.47;;;2.38;;
72951;SDS011;61102;51.956;5.878;2023-06-19T07:44:45;6.07;;;2.90;;
72951;SDS011;61102;51.956;5.878;2023-06-19T07:47:11;6.10;;;2.45;;
72951;SDS011;61102;51.956;5.878;2023-06-19T07:49:39;5.82;;;2.60;;
72951;SDS011;61102;51.956;5.878;2023-06-19T07:52:05;6.35;;;3.08;;
72951;SDS011;61102;51.956;5.878;2023-06-19T07:54:33;6.38;;;2.67;;
72951;SDS011;61102;51.956;5.878;2023-06-19T07:56:59;7.07;;;3.30;;
72951;SDS011;61102;51.956;5.878;2023-06-19T07:59:27;6.93;;;3.05;;
72951;SDS011;61102;51.956;5.878;2023-06-19T08:01:53;7.40;;;2.90;;
72951;SDS011;61102;51.956;5.878;2023-06-19T08:04:19;6.53;;;2.83;;
72951;SDS011;61102;51.956;5.878;2023-06-19T08:06:45;8.25;;;3.22;;
72951;SDS011;61102;51.956;5.878;2023-06-19T08:09:11;8.65;;;3.92;;
72951;SDS011;61102;51.956;5.878;2023-06-19T08:11:37;7.40;;;3.15;;
72951;SDS011;61102;51.956;5.878;2023-06-19T08:14:03;10.48;;;4.03;;
72951;SDS011;61102;51.956;5.878;2023-06-19T08:16:29;5.80;;;2.90;;
72951;SDS011;61102;51.956;5.878;2023-06-19T08:18:55;7.82;;;2.80;;
72951;SDS011;61102;51.956;5.878;2023-06-19T08:21:21;9.13;;;3.60;;
72951;SDS011;61102;51.956;5.878;2023-06-19T08:23:48;6.03;;;2.80;;
72951;SDS011;61102;51.956;5.878;2023-06-19T08:26:15;5.68;;;2.63;;
72951;SDS011;61102;51.956;5.878;2023-06-19T08:28:43;6.72;;;3.08;;
72951;SDS011;61102;51.956;5.878;2023-06-19T08:31:10;5.30;;;2.47;;
72951;SDS011;61102;51.956;5.878;2023-06-19T08:33:36;9.07;;;2.90;;
72951;SDS011;61102;51.956;5.878;2023-06-19T08:36:02;6.80;;;3.47;;
72951;SDS011;61102;51.956;5.878;2023-06-19T08:38:28;6.82;;;3.38;;
72951;SDS011;61102;51.956;5.878;2023-06-19T08:40:55;7.22;;;3.60;;
72951;SDS011;61102;51.956;5.878;2023-06-19T08:43:21;8.73;;;3.33;;
72951;SDS011;61102;51.956;5.878;2023-06-19T08:48:28;6.25;;;2.50;;
72951;SDS011;61102;51.956;5.878;2023-06-19T08:50:54;7.50;;;3.03;;
72951;SDS011;61102;51.956;5.878;2023-06-19T08:53:21;7.32;;;3.15;;
72951;SDS011;61102;51.956;5.878;2023-06-19T08:55:48;6.10;;;2.88;;
72951;SDS011;61102;51.956;5.878;2023-06-19T08:58:22;7.03;;;3.28;;
72951;SDS011;61102;51.956;5.878;2023-06-19T09:00:50;6.93;;;3.50;;
72951;SDS011;61102;51.956;5.878;2023-06-19T09:03:22;7.07;;;3.47;;
72951;SDS011;61102;51.956;5.878;2023-06-19T09:05:48;7.70;;;3.22;;
72951;SDS011;61102;51.956;5.878;2023-06-19T09:08:19;6.22;;;2.67;;
72951;SDS011;61102;51.956;5.878;2023-06-19T09:11:03;6.60;;;2.78;;
72951;SDS011;61102;51.956;5.878;2023-06-19T09:13:30;6.43;;;3.05;;
72951;SDS011;61102;51.956;5.878;2023-06-19T09:15:59;7.78;;;3.92;;
72951;SDS011;61102;51.956;5.878;2023-06-19T09:18:30;6.82;;;2.78;;
72951;SDS011;61102;51.956;5.878;2023-06-19T09:20:57;8.25;;;2.50;;
72951;SDS011;61102;51.956;5.878;2023-06-19T09:23:26;8.63;;;3.78;;
72951;SDS011;61102;51.956;5.878;2023-06-19T09:25:57;8.50;;;3.60;;
72951;SDS011;61102;51.956;5.878;2023-06-19T09:28:25;6.75;;;2.63;;
72951;SDS011;61102;51.956;5.878;2023-06-19T09:30:53;7.32;;;3.42;;
72951;SDS011;61102;51.956;5.878;2023-06-19T09:33:27;8.13;;;4.15;;
72951;SDS011;61102;51.956;5.878;2023-06-19T09:36:03;6.75;;;3.28;;
72951;SDS011;61102;51.956;5.878;2023-06-19T09:38:31;7.40;;;3.47;;
72951;SDS011;61102;51.956;5.878;2023-06-19T09:41:03;6.78;;;3.03;;
72951;SDS011;61102;51.956;5.878;2023-06-19T09:46:29;6.40;;;3.22;;
72951;SDS011;61102;51.956;5.878;2023-06-19T09:49:00;9.30;;;4.13;;
72951;SDS011;61102;51.956;5.878;2023-06-19T09:51:33;7.60;;;3.85;;
72951;SDS011;61102;51.956;5.878;2023-06-19T09:54:02;8.50;;;3.90;;
72951;SDS011;61102;51.956;5.878;2023-06-19T09:56:30;8.93;;;4.45;;
72951;SDS011;61102;51.956;5.878;2023-06-19T09:58:57;7.13;;;2.90;;
72951;SDS011;61102;51.956;5.878;2023-06-19T10:01:27;9.27;;;4.57;;
72951;SDS011;61102;51.956;5.878;2023-06-19T10:04:05;7.25;;;3.63;;
72951;SDS011;61102;51.956;5.878;2023-06-19T10:06:43;7.25;;;4.32;;
72951;SDS011;61102;51.956;5.878;2023-06-19T10:09:14;7.43;;;3.28;;
72951;SDS011;61102;51.956;5.878;2023-06-19T10:11:45;8.00;;;4.20;;
72951;SDS011;61102;51.956;5.878;2023-06-19T10:14:44;6.88;;;3.70;;
72951;SDS011;61102;51.956;5.878;2023-06-19T10:17:22;8.50;;;3.88;;
72951;SDS011;61102;51.956;5.878;2023-06-19T10:19:49;7.80;;;4.38;;
72951;SDS011;61102;51.956;5.878;2023-06-19T10:22:21;6.93;;;3.20;;
72951;SDS011;61102;51.956;5.878;2023-06-19T10:24:53;8.75;;;5.28;;
72951;SDS011;61102;51.956;5.878;2023-06-19T10:27:20;8.55;;;4.75;;
72951;SDS011;61102;51.956;5.878;2023-06-19T10:29:54;7.78;;;3.40;;
72951;SDS011;61102;51.956;5.878;2023-06-19T10:32:23;10.40;;;4.78;;
72951;SDS011;61102;51.956;5.878;2023-06-19T10:35:48;7.88;;;3.80;;
72951;SDS011;61102;51.956;5.878;2023-06-19T10:38:15;8.45;;;4.72;;
72951;SDS011;61102;51.956;5.878;2023-06-19T10:40:42;7.03;;;3.47;;
72951;SDS011;61102;51.956;5.878;2023-06-19T10:43:22;7.43;;;3.45;;
72951;SDS011;61102;51.956;5.878;2023-06-19T10:45:50;6.82;;;4.10;;
72951;SDS011;61102;51.956;5.878;2023-06-19T10:48:22;8.65;;;5.45;;
72951;SDS011;61102;51.956;5.878;2023-06-19T10:50:49;7.80;;;4.07;;
72951;SDS011;61102;51.956;5.878;2023-06-19T10:53:24;7.80;;;4.13;;
72951;SDS011;61102;51.956;5.878;2023-06-19T10:56:01;8.07;;;4.13;;
72951;SDS011;61102;51.956;5.878;2023-06-19T10:58:28;9.70;;;4.68;;
72951;SDS011;61102;51.956;5.878;2023-06-19T11:00:55;8.13;;;4.00;;
72951;SDS011;61102;51.956;5.878;2023-06-19T11:03:22;7.28;;;3.50;;
72951;SDS011;61102;51.956;5.878;2023-06-19T11:08:19;9.35;;;4.53;;
72951;SDS011;61102;51.956;5.878;2023-06-19T11:10:46;7.75;;;4.63;;
72951;SDS011;61102;51.956;5.878;2023-06-19T11:13:17;9.00;;;5.03;;
72951;SDS011;61102;51.956;5.878;2023-06-19T11:15:44;8.00;;;4.53;;
72951;SDS011;61102;51.956;5.878;2023-06-19T11:20:44;8.13;;;4.82;;
72951;SDS011;61102;51.956;5.878;2023-06-19T11:23:10;7.60;;;3.45;;
72951;SDS011;61102;51.956;5.878;2023-06-19T11:25:36;9.43;;;4.28;;
72951;SDS011;61102;51.956;5.878;2023-06-19T11:28:13;8.10;;;4.50;;
72951;SDS011;61102;51.956;5.878;2023-06-19T11:30:42;7.30;;;3.67;;
72951;SDS011;61102;51.956;5.878;2023-06-19T11:33:20;7.20;;;3.78;;
72951;SDS011;61102;51.956;5.878;2023-06-19T11:35:50;9.93;;;5.35;;
72951;SDS011;61102;51.956;5.878;2023-06-19T11:38:20;8.63;;;4.03;;
72951;SDS011;61102;51.956;5.878;2023-06-19T11:40:47;9.60;;;5.28;;
72951;SDS011;61102;51.956;5.878;2023-06-19T11:43:32;7.82;;;3.70;;
72951;SDS011;61102;51.956;5.878;2023-06-19T11:46:07;8.23;;;4.18;;
72951;SDS011;61102;51.956;5.878;2023-06-19T11:48:37;9.32;;;5.38;;
72951;SDS011;61102;51.956;5.878;2023-06-19T11:51:08;8.77;;;3.90;;
72951;SDS011;61102;51.956;5.878;2023-06-19T11:53:35;6.93;;;3.72;;
72951;SDS011;61102;51.956;5.878;2023-06-19T11:56:01;8.23;;;3.80;;
72951;SDS011;61102;51.956;5.878;2023-06-19T11:58:30;8.20;;;3.47;;
72951;SDS011;61102;51.956;5.878;2023-06-19T12:00:56;8.27;;;3.25;;
72951;SDS011;61102;51.956;5.878;2023-06-19T12:03:22;9.68;;;4.60;;
72951;SDS011;61102;51.956;5.878;2023-06-19T12:05:48;9.80;;;3.88;;
72951;SDS011;61102;51.956;5.878;2023-06-19T12:08:14;7.55;;;3.85;;
72951;SDS011;61102;51.956;5.878;2023-06-19T12:10:40;8.43;;;3.42;;
72951;SDS011;61102;51.956;5.878;2023-06-19T12:13:06;7.47;;;3.55;;
72951;SDS011;61102;51.956;5.878;2023-06-19T12:15:32;7.88;;;3.10;;
72951;SDS011;61102;51.956;5.878;2023-06-19T12:18:04;8.02;;;3.83;;
72951;SDS011;61102;51.956;5.878;2023-06-19T12:20:32;7.38;;;3.55;;
72951;SDS011;61102;51.956;5.878;2023-06-19T12:23:04;8.82;;;3.50;;
72951;SDS011;61102;51.956;5.878;2023-06-19T12:25:32;6.45;;;2.72;;
72951;SDS011;61102;51.956;5.878;2023-06-19T12:27:58;7.05;;;3.25;;
72951;SDS011;61102;51.956;5.878;2023-06-19T12:30:24;8.27;;;3.20;;
72951;SDS011;61102;51.956;5.878;2023-06-19T12:32:50;8.30;;;4.00;;
72951;SDS011;61102;51.956;5.878;2023-06-19T12:35:16;8.85;;;3.72;;
72951;SDS011;61102;51.956;5.878;2023-06-19T12:37:43;7.57;;;3.60;;
72951;SDS011;61102;51.956;5.878;2023-06-19T12:40:12;7.63;;;3.33;;
72951;SDS011;61102;51.956;5.878;2023-06-19T12:42:53;7.28;;;3.70;;
72951;SDS011;61102;51.956;5.878;2023-06-19T12:45:19;9.10;;;3.92;;
72951;SDS011;61102;51.956;5.878;2023-06-19T12:47:45;7.80;;;3.35;;
72951;SDS011;61102;51.956;5.878;2023-06-19T12:50:11;6.93;;;3.13;;
72951;SDS011;61102;51.956;5.878;2023-06-19T12:52:37;5.45;;;2.28;;
72951;SDS011;61102;51.956;5.878;2023-06-19T12:59:55;6.45;;;2.70;;
72951;SDS011;61102;51.956;5.878;2023-06-19T13:02:21;8.50;;;2.95;;
72951;SDS011;61102;51.956;5.878;2023-06-19T13:04:48;5.55;;;2.40;;
72951;SDS011;61102;51.956;5.878;2023-06-19T13:07:14;6.35;;;2.60;;
72951;SDS011;61102;51.956;5.878;2023-06-19T13:09:41;5.30;;;2.25;;
72951;SDS011;61102;51.956;5.878;2023-06-19T13:15:00;7.28;;;2.78;;
72951;SDS011;61102;51.956;5.878;2023-06-19T13:17:26;5.88;;;2.70;;
72951;SDS011;61102;51.956;5.878;2023-06-19T13:19:52;6.97;;;2.60;;
72951;SDS011;61102;51.956;5.878;2023-06-19T13:22:18;6.45;;;2.50;;
72951;SDS011;61102;51.956;5.878;2023-06-19T13:24:44;5.80;;;2.30;;
72951;SDS011;61102;51.956;5.878;2023-06-19T13:27:10;6.15;;;2.55;;
72951;SDS011;61102;51.956;5.878;2023-06-19T13:29:36;5.80;;;2.63;;
72951;SDS011;61102;51.956;5.878;2023-06-19T13:32:02;6.22;;;2.45;;
72951;SDS011;61102;51.956;5.878;2023-06-19T13:36:54;5.82;;;2.40;;
72951;SDS011;61102;51.956;5.878;2023-06-19T13:39:20;5.85;;;2.47;;
72951;SDS011;61102;51.956;5.878;2023-06-19T13:41:47;4.93;;;1.90;;
72951;SDS011;61102;51.956;5.878;2023-06-19T13:44:13;5.65;;;2.00;;
72951;SDS011;61102;51.956;5.878;2023-06-19T13:46:40;5.30;;;2.25;;
72951;SDS011;61102;51.956;5.878;2023-06-19T13:49:06;7.10;;;2.80;;
72951;SDS011;61102;51.956;5.878;2023-06-19T13:51:35;6.13;;;2.13;;
72951;SDS011;61102;51.956;5.878;2023-06-19T13:54:02;5.70;;;2.60;;
72951;SDS011;61102;51.956;5.878;2023-06-19T13:56:32;6.57;;;2.47;;
72951;SDS011;61102;51.956;5.878;2023-06-19T13:58:58;5.82;;;2.33;;
72951;SDS011;61102;51.956;5.878;2023-06-19T14:01:24;5.65;;;2.20;;
72951;SDS011;61102;51.956;5.878;2023-06-19T14:03:53;5.35;;;2.47;;
72951;SDS011;61102;51.956;5.878;2023-06-19T14:06:19;7.07;;;2.53;;
72951;SDS011;61102;51.956;5.878;2023-06-19T14:08:51;5.60;;;2.40;;
72951;SDS011;61102;51.956;5.878;2023-06-19T14:11:18;8.20;;;3.33;;
72951;SDS011;61102;51.956;5.878;2023-06-19T14:13:45;8.32;;;3.13;;
72951;SDS011;61102;51.956;5.878;2023-06-19T14:16:11;6.90;;;2.72;;
72951;SDS011;61102;51.956;5.878;2023-06-19T14:18:40;6.05;;;2.20;;
72951;SDS011;61102;51.956;5.878;2023-06-19T14:21:06;8.40;;;2.90;;
72951;SDS011;61102;51.956;5.878;2023-06-19T14:23:35;7.20;;;3.20;;
72951;SDS011;61102;51.956;5.878;2023-06-19T14:26:05;6.68;;;3.08;;
72951;SDS011;61102;51.956;5.878;2023-06-19T14:28:31;7.22;;;3.22;;
72951;SDS011;61102;51.956;5.878;2023-06-19T14:31:06;7.70;;;4.03;;
72951;SDS011;61102;51.956;5.878;2023-06-19T14:33:34;7.20;;;2.92;;
72951;SDS011;61102;51.956;5.878;2023-06-19T14:36:02;7.43;;;3.55;;
72951;SDS011;61102;51.956;5.878;2023-06-19T14:38:29;9.07;;;3.70;;
72951;SDS011;61102;51.956;5.878;2023-06-19T14:41:01;6.63;;;2.95;;
72951;SDS011;61102;51.956;5.878;2023-06-19T14:43:31;5.78;;;2.35;;
72951;SDS011;61102;51.956;5.878;2023-06-19T14:45:58;7.70;;;3.60;;
72951;SDS011;61102;51.956;5.878;2023-06-19T14:48:24;7.75;;;3.83;;
72951;SDS011;61102;51.956;5.878;2023-06-19T14:50:50;6.85;;;2.78;;
72951;SDS011;61102;51.956;5.878;2023-06-19T14:53:16;10.00;;;4.10;;
72951;SDS011;61102;51.956;5.878;2023-06-19T14:55:43;7.25;;;3.05;;
72951;SDS011;61102;51.956;5.878;2023-06-19T14:58:12;9.63;;;3.90;;
72951;SDS011;61102;51.956;5.878;2023-06-19T15:00:39;7.70;;;3.88;;
72951;SDS011;61102;51.956;5.878;2023-06-19T15:03:06;7.95;;;3.60;;
72951;SDS011;61102;51.956;5.878;2023-06-19T15:05:32;6.55;;;2.65;;
72951;SDS011;61102;51.956;5.878;2023-06-19T15:07:59;6.88;;;3.35;;
72951;SDS011;61102;51.956;5.878;2023-06-19T15:10:27;7.45;;;3.40;;
72951;SDS011;61102;51.956;5.878;2023-06-19T15:12:53;7.22;;;3.25;;
72951;SDS011;61102;51.956;5.878;2023-06-19T15:15:19;7.15;;;3.00;;
72951;SDS011;61102;51.956;5.878;2023-06-19T15:17:48;6.68;;;3.00;;
72951;SDS011;61102;51.956;5.878;2023-06-19T15:20:14;6.50;;;2.92;;
72951;SDS011;61102;51.956;5.878;2023-06-19T15:22:42;7.43;;;3.50;;
72951;SDS011;61102;51.956;5.878;2023-06-19T15:25:10;7.40;;;3.30;;
72951;SDS011;61102;51.956;5.878;2023-06-19T15:27:37;7.10;;;3.53;;